createdAt,value
2022-10-22T00:01:08.848Z,12.63
2022-10-22T00:03:36.078Z,12.71
2022-10-22T00:06:03.587Z,12.62
2022-10-22T00:08:33.658Z,12.67
2022-10-22T00:11:12.488Z,12.59
2022-10-22T00:13:39.847Z,12.56
2022-10-22T00:16:09.378Z,12.33
2022-10-22T00:18:37.581Z,12.59
2022-10-22T00:21:06.497Z,12.67
2022-10-22T00:23:34.212Z,12.43
2022-10-22T00:26:01.447Z,12.61
2022-10-22T00:28:28.596Z,12.22
2022-10-22T00:30:57.938Z,12.61
2022-10-22T00:33:26.632Z,12.31
2022-10-22T00:35:54.450Z,12.60
2022-10-22T00:38:21.898Z,12.70
2022-10-22T00:40:49.078Z,12.78
2022-10-22T00:43:27.208Z,12.82
2022-10-22T00:45:56.460Z,12.79
2022-10-22T00:48:33.481Z,12.77
2022-10-22T00:51:06.477Z,12.85
2022-10-22T00:53:41.655Z,12.77
2022-10-22T00:56:10.146Z,12.77
2022-10-22T00:58:45.342Z,12.82
2022-10-22T01:01:21.633Z,12.58
2022-10-22T01:03:50.130Z,12.75
2022-10-22T01:06:32.065Z,12.66
2022-10-22T01:09:18.924Z,12.76
2022-10-22T01:12:09.801Z,12.79
2022-10-22T01:14:45.099Z,12.75
2022-10-22T01:17:39.139Z,12.77
2022-10-22T01:20:18.704Z,12.72
2022-10-22T01:23:31.904Z,12.78
2022-10-22T01:29:10.254Z,12.52
2022-10-22T01:32:00.786Z,12.54
2022-10-22T01:34:32.436Z,12.34
2022-10-22T01:37:01.939Z,12.32
2022-10-22T01:39:31.072Z,12.32
2022-10-22T01:42:04.011Z,12.36
2022-10-22T01:47:21.361Z,12.35
2022-10-22T01:50:17.720Z,12.20
2022-10-22T01:52:46.105Z,12.03
2022-10-22T01:55:48.908Z,12.06
2022-10-22T01:58:18.957Z,12.12
2022-10-22T02:01:03.275Z,11.93
2022-10-22T02:03:46.327Z,11.97
2022-10-22T02:06:21.283Z,12.06
2022-10-22T02:08:51.035Z,12.06
2022-10-22T02:11:18.298Z,12.11
2022-10-22T02:13:53.385Z,12.11
2022-10-22T02:16:36.503Z,12.13
2022-10-22T02:19:23.181Z,12.18
2022-10-22T02:21:50.543Z,12.25
2022-10-22T02:24:18.774Z,12.33
2022-10-22T02:27:24.292Z,12.03
2022-10-22T02:30:12.748Z,12.26
2022-10-22T02:33:12.975Z,12.15
2022-10-22T02:35:41.993Z,12.20
2022-10-22T02:38:11.209Z,12.16
2022-10-22T02:40:38.619Z,12.24
2022-10-22T02:43:08.761Z,12.23
2022-10-22T02:45:36.784Z,12.31
2022-10-22T02:48:04.580Z,12.41
2022-10-22T02:50:32.100Z,12.10
2022-10-22T02:52:59.307Z,11.72
2022-10-22T02:55:26.385Z,11.73
2022-10-22T02:57:53.467Z,11.78
2022-10-22T03:00:21.158Z,12.01
2022-10-22T03:02:48.347Z,11.98
2022-10-22T03:05:15.650Z,12.01
2022-10-22T03:07:44.929Z,12.03
2022-10-22T03:10:12.071Z,12.27
2022-10-22T03:12:39.184Z,12.27
2022-10-22T03:15:06.920Z,12.30
2022-10-22T03:17:34.113Z,12.41
2022-10-22T03:20:01.244Z,12.01
2022-10-22T03:22:32.636Z,12.35
2022-10-22T03:25:07.906Z,12.18
2022-10-22T03:27:38.485Z,12.25
2022-10-22T03:30:09.521Z,12.36
2022-10-22T03:32:39.598Z,12.35
2022-10-22T03:35:07.069Z,12.48
2022-10-22T03:37:35.911Z,12.51
2022-10-22T03:40:09.493Z,12.45
2022-10-22T03:42:36.546Z,12.29
2022-10-22T03:45:04.946Z,12.55
2022-10-22T03:47:32.073Z,12.39
2022-10-22T03:50:01.760Z,12.61
2022-10-22T03:52:29.053Z,12.38
2022-10-22T03:54:56.146Z,12.49
2022-10-22T03:57:25.856Z,12.12
2022-10-22T03:59:53.005Z,12.30
2022-10-22T04:02:20.105Z,12.55
2022-10-22T04:04:47.286Z,12.62
2022-10-22T04:07:16.989Z,12.68
2022-10-22T04:09:44.102Z,12.71
2022-10-22T04:12:11.274Z,12.68
2022-10-22T04:14:38.390Z,12.74
2022-10-22T04:17:05.680Z,12.62
2022-10-22T04:19:33.048Z,12.78
2022-10-22T04:22:00.760Z,12.85
2022-10-22T04:24:27.990Z,12.91
2022-10-22T04:26:56.120Z,12.92
2022-10-22T04:29:24.293Z,12.91
2022-10-22T04:31:51.617Z,12.70
2022-10-22T04:34:21.161Z,12.83
2022-10-22T04:36:48.310Z,12.90
2022-10-22T04:39:15.442Z,12.97
2022-10-22T04:42:01.118Z,12.86
2022-10-22T04:44:42.758Z,12.90
2022-10-22T04:47:09.905Z,12.84
2022-10-22T04:49:37.056Z,12.87
2022-10-22T04:52:06.956Z,12.84
2022-10-22T04:54:34.037Z,12.78
2022-10-22T04:57:01.313Z,12.92
2022-10-22T04:59:28.525Z,12.98
2022-10-22T05:01:56.021Z,13.00
2022-10-22T05:04:25.659Z,13.03
2022-10-22T05:06:55.188Z,13.05
2022-10-22T05:09:22.406Z,13.05
2022-10-22T05:11:52.585Z,13.09
2022-10-22T05:14:23.831Z,13.02
2022-10-22T05:16:52.182Z,12.91
2022-10-22T05:19:26.961Z,12.74
2022-10-22T05:21:57.732Z,12.84
2022-10-22T05:24:26.603Z,12.89
2022-10-22T05:26:56.269Z,13.00
2022-10-22T05:29:27.257Z,12.92
2022-10-22T05:31:54.743Z,13.02
2022-10-22T05:34:24.224Z,12.79
2022-10-22T05:36:51.333Z,12.58
2022-10-22T05:39:18.438Z,12.84
2022-10-22T05:41:45.482Z,12.64
2022-10-22T05:44:13.948Z,12.97
2022-10-22T05:46:41.167Z,13.07
2022-10-22T05:49:08.677Z,13.14
2022-10-22T05:51:37.455Z,13.24
2022-10-22T05:54:09.946Z,13.32
2022-10-22T05:56:37.567Z,13.31
2022-10-22T05:59:04.995Z,13.31
2022-10-22T06:01:35.546Z,13.06
2022-10-22T06:04:06.935Z,13.33
2022-10-22T06:06:54.417Z,13.22
2022-10-22T06:09:35.516Z,13.37
2022-10-22T06:12:03.295Z,13.48
2022-10-22T06:14:32.710Z,13.50
2022-10-22T06:17:00.727Z,13.55
2022-10-22T06:19:29.858Z,13.61
2022-10-22T06:21:57.007Z,13.65
2022-10-22T06:24:24.169Z,13.71
2022-10-22T06:26:52.707Z,13.76
2022-10-22T06:29:22.065Z,13.46
2022-10-22T06:31:49.704Z,13.42
2022-10-22T06:34:19.028Z,13.39
2022-10-22T06:36:47.688Z,13.31
2022-10-22T06:39:17.689Z,13.58
2022-10-22T06:41:45.109Z,13.47
2022-10-22T06:44:19.829Z,13.38
2022-10-22T06:46:47.843Z,13.57
2022-10-22T06:49:15.931Z,13.62
2022-10-22T06:51:43.514Z,13.59
2022-10-22T06:54:11.431Z,13.74
2022-10-22T06:56:38.564Z,13.70
2022-10-22T06:59:05.787Z,13.81
2022-10-22T07:01:35.783Z,13.60
2022-10-22T07:04:06.676Z,13.72
2022-10-22T07:06:33.861Z,13.61
2022-10-22T07:09:01.101Z,13.83
2022-10-22T07:11:41.587Z,13.75
2022-10-22T07:14:09.591Z,13.83
2022-10-22T07:16:37.874Z,13.85
2022-10-22T07:19:05.876Z,13.64
2022-10-22T07:21:33.163Z,13.67
2022-10-22T07:24:00.337Z,13.58
2022-10-22T07:26:31.021Z,13.41
2022-10-22T07:29:00.019Z,13.72
2022-10-22T07:31:28.247Z,13.67
2022-10-22T07:33:55.322Z,13.59
2022-10-22T07:36:24.999Z,13.77
2022-10-22T07:38:57.467Z,13.96
2022-10-22T07:41:25.672Z,14.11
2022-10-22T07:43:52.772Z,14.23
2022-10-22T07:46:23.106Z,14.28
2022-10-22T07:48:50.273Z,14.42
2022-10-22T07:51:18.052Z,14.38
2022-10-22T07:53:45.244Z,14.41
2022-10-22T07:56:12.448Z,14.38
2022-10-22T07:58:39.654Z,14.38
2022-10-22T08:01:06.982Z,14.53
2022-10-22T08:03:34.685Z,14.33
2022-10-22T08:06:02.588Z,14.35
2022-10-22T08:08:37.277Z,14.31
2022-10-22T08:11:06.852Z,14.66
2022-10-22T08:13:34.007Z,14.66
2022-10-22T08:16:02.149Z,14.54
2022-10-22T08:18:31.763Z,14.66
2022-10-22T08:20:59.210Z,14.78
2022-10-22T08:23:29.297Z,14.86
2022-10-22T08:25:57.905Z,14.77
2022-10-22T08:28:26.296Z,14.85
2022-10-22T08:30:53.365Z,15.03
2022-10-22T08:33:20.773Z,15.27
2022-10-22T08:35:53.980Z,15.53
2022-10-22T08:38:23.805Z,15.42
2022-10-22T08:40:59.532Z,14.84
2022-10-22T08:43:53.449Z,14.69
2022-10-22T08:46:41.344Z,14.31
2022-10-22T08:49:24.794Z,14.51
2022-10-22T08:51:52.388Z,14.38
2022-10-22T08:54:51.901Z,14.92
2022-10-22T08:57:37.222Z,15.15
2022-10-22T09:00:15.058Z,15.17
2022-10-22T09:03:09.883Z,15.22
2022-10-22T09:06:08.871Z,15.23
2022-10-22T09:08:38.705Z,15.09
2022-10-22T09:11:11.658Z,14.83
2022-10-22T09:13:43.638Z,15.22
2022-10-22T09:16:37.772Z,15.54
2022-10-22T09:19:31.092Z,15.18
2022-10-22T09:22:21.588Z,15.34
2022-10-22T09:25:16.766Z,15.17
2022-10-22T09:27:44.133Z,15.35
2022-10-22T09:30:21.786Z,15.44
2022-10-22T09:32:49.908Z,15.48
2022-10-22T09:35:26.369Z,15.19
2022-10-22T09:37:59.332Z,15.33
2022-10-22T09:40:26.455Z,15.25
2022-10-22T09:42:53.455Z,15.11
2022-10-22T09:45:29.529Z,14.66
2022-10-22T09:48:37.488Z,14.46
2022-10-22T09:54:25.305Z,14.44
2022-10-22T09:57:24.985Z,14.72
2022-10-22T09:59:55.024Z,14.72
2022-10-22T10:02:38.158Z,14.63
2022-10-22T10:05:07.949Z,14.49
2022-10-22T10:07:36.878Z,14.59
2022-10-22T10:10:18.237Z,14.45
2022-10-22T10:13:20.366Z,14.18
2022-10-22T10:16:26.338Z,14.41
2022-10-22T10:19:36.215Z,14.15
2022-10-22T10:22:22.834Z,14.39
2022-10-22T10:25:15.588Z,14.62
2022-10-22T10:28:04.337Z,14.69
2022-10-22T10:30:34.144Z,14.66
2022-10-22T10:34:00.107Z,14.51
2022-10-22T10:37:05.402Z,14.45
2022-10-22T10:40:00.854Z,14.41
2022-10-22T10:43:35.594Z,14.64
2022-10-22T10:46:29.514Z,14.55
2022-10-22T10:49:26.210Z,14.55
2022-10-22T10:52:29.499Z,14.76
2022-10-22T10:55:22.530Z,14.55
2022-10-22T10:58:04.590Z,14.65
2022-10-22T11:00:47.880Z,14.63
2022-10-22T11:04:07.741Z,14.96
2022-10-22T11:06:39.556Z,14.92
2022-10-22T11:09:38.859Z,14.87
2022-10-22T11:12:39.293Z,14.84
2022-10-22T11:15:35.792Z,14.70
2022-10-22T11:18:21.118Z,15.04
2022-10-22T11:21:10.031Z,15.12
2022-10-22T11:23:52.064Z,15.17
2022-10-22T11:26:48.993Z,15.21
2022-10-22T11:29:32.948Z,15.17
2022-10-22T11:32:05.396Z,15.39
2022-10-22T11:34:54.529Z,15.17
2022-10-22T11:37:24.267Z,15.30
2022-10-22T11:39:59.804Z,15.02
2022-10-22T11:42:38.589Z,15.08
2022-10-22T11:45:28.857Z,14.96
2022-10-22T11:48:27.167Z,15.16
2022-10-22T11:51:01.729Z,15.08
2022-10-22T11:53:48.991Z,15.03
2022-10-22T11:56:36.312Z,15.36
2022-10-22T11:59:04.150Z,15.16
2022-10-22T12:01:43.062Z,14.92
2022-10-22T12:04:21.974Z,14.86
2022-10-22T12:07:02.035Z,15.26
2022-10-22T12:09:34.470Z,15.22
2022-10-22T12:12:38.319Z,15.40
2022-10-22T12:15:27.699Z,15.06
2022-10-22T12:18:05.944Z,15.19
2022-10-22T12:20:35.642Z,15.10
2022-10-22T12:23:02.847Z,15.17
2022-10-22T12:25:36.624Z,14.92
2022-10-22T12:28:04.598Z,14.93
2022-10-22T12:30:37.261Z,14.78
2022-10-22T12:33:19.249Z,14.80
2022-10-22T12:35:49.034Z,15.03
2022-10-22T12:38:21.140Z,14.93
2022-10-22T12:40:50.905Z,14.88
2022-10-22T12:43:20.125Z,15.24
2022-10-22T12:45:50.549Z,15.21
2022-10-22T12:48:29.691Z,15.27
2022-10-22T12:51:02.399Z,15.17
2022-10-22T12:53:51.918Z,15.14
2022-10-22T12:56:28.439Z,15.01
2022-10-22T12:59:07.232Z,14.93
2022-10-22T13:01:41.607Z,15.09
2022-10-22T13:04:21.213Z,15.19
2022-10-22T13:07:06.882Z,15.16
2022-10-22T13:09:59.893Z,14.94
2022-10-22T13:12:37.183Z,14.85
2022-10-22T13:15:35.463Z,15.09
2022-10-22T13:18:22.522Z,15.07
2022-10-22T13:21:03.204Z,14.96
2022-10-22T13:23:36.290Z,14.82
2022-10-22T13:26:16.965Z,14.74
2022-10-22T13:28:56.343Z,15.02
2022-10-22T13:31:36.387Z,15.11
2022-10-22T13:34:11.727Z,15.19
2022-10-22T13:36:41.034Z,15.15
2022-10-22T13:39:24.562Z,15.27
2022-10-22T13:41:51.999Z,15.36
2022-10-22T13:44:20.030Z,15.52
2022-10-22T13:46:48.430Z,15.52
2022-10-22T13:49:23.446Z,15.33
2022-10-22T13:51:51.701Z,15.34
2022-10-22T13:54:22.894Z,15.37
2022-10-22T13:56:49.970Z,15.53
2022-10-22T13:59:23.865Z,15.25
2022-10-22T14:01:54.890Z,15.25
2022-10-22T14:04:22.073Z,15.35
2022-10-22T14:06:51.690Z,15.37
2022-10-22T14:09:21.209Z,15.35
2022-10-22T14:11:48.267Z,15.41
2022-10-22T14:14:18.865Z,15.28
2022-10-22T14:16:46.180Z,15.34
2022-10-22T14:19:17.933Z,15.44
2022-10-22T14:21:49.145Z,15.36
2022-10-22T14:24:16.179Z,15.36
2022-10-22T14:26:43.252Z,15.34
2022-10-22T14:29:11.372Z,15.35
2022-10-22T14:31:42.176Z,15.12
2022-10-22T14:34:15.137Z,15.32
2022-10-22T14:36:45.349Z,15.31
2022-10-22T14:39:13.813Z,15.31
2022-10-22T14:41:41.237Z,15.19
2022-10-22T14:44:14.536Z,15.29
2022-10-22T14:46:45.316Z,15.33
2022-10-22T14:49:12.843Z,15.20
2022-10-22T14:51:40.214Z,15.28
2022-10-22T14:54:07.373Z,15.41
2022-10-22T14:56:34.694Z,15.40
2022-10-22T14:59:01.735Z,15.45
2022-10-22T15:01:28.828Z,15.39
2022-10-22T15:03:55.882Z,15.23
2022-10-22T15:06:25.259Z,15.24
2022-10-22T15:08:52.384Z,15.41
2022-10-22T15:11:19.439Z,15.50
2022-10-22T15:13:46.536Z,15.45
2022-10-22T15:16:16.492Z,15.38
2022-10-22T15:18:45.813Z,15.27
2022-10-22T15:21:19.973Z,15.43
2022-10-22T15:23:48.255Z,15.24
2022-10-22T15:26:15.593Z,15.40
2022-10-22T15:28:43.313Z,15.32
2022-10-22T15:31:14.539Z,14.95
2022-10-22T15:33:45.725Z,14.79
2022-10-22T15:36:16.248Z,15.20
2022-10-22T15:38:43.349Z,15.07
2022-10-22T15:41:12.733Z,15.00
2022-10-22T15:43:39.846Z,14.91
2022-10-22T15:46:14.494Z,14.99
2022-10-22T15:48:43.049Z,15.24
2022-10-22T15:51:19.109Z,15.27
2022-10-22T15:53:58.824Z,15.02
2022-10-22T15:56:28.606Z,15.18
2022-10-22T15:58:59.898Z,15.16
2022-10-22T16:01:27.764Z,15.24
2022-10-22T16:04:03.532Z,15.21
2022-10-22T16:06:46.150Z,15.26
2022-10-22T16:09:20.235Z,15.16
2022-10-22T16:11:54.720Z,15.28
2022-10-22T16:14:23.681Z,15.28
2022-10-22T16:16:54.166Z,15.25
2022-10-22T16:19:23.595Z,15.26
2022-10-22T16:21:53.950Z,15.10
2022-10-22T16:24:22.360Z,15.08
2022-10-22T16:26:49.994Z,15.26
2022-10-22T16:29:17.232Z,15.25
2022-10-22T16:31:45.519Z,15.34
2022-10-22T16:34:13.506Z,15.23
2022-10-22T16:36:40.807Z,15.31
2022-10-22T16:39:10.797Z,15.35
2022-10-22T16:41:37.940Z,15.32
2022-10-22T16:44:08.041Z,15.39
2022-10-22T16:46:39.377Z,15.52
2022-10-22T16:49:07.353Z,15.44
2022-10-22T16:51:35.361Z,15.50
2022-10-22T16:54:04.564Z,15.23
2022-10-22T16:56:36.495Z,15.14
2022-10-22T16:59:03.713Z,15.20
2022-10-22T17:01:31.785Z,15.26
2022-10-22T17:04:02.252Z,15.38
2022-10-22T17:06:29.426Z,15.37
2022-10-22T17:08:56.603Z,15.48
2022-10-22T17:11:25.356Z,15.28
2022-10-22T17:13:56.134Z,15.33
2022-10-22T17:16:25.019Z,15.45
2022-10-22T17:18:54.955Z,15.40
2022-10-22T17:21:23.185Z,15.41
2022-10-22T17:23:56.623Z,15.48
2022-10-22T17:26:30.640Z,15.58
2022-10-22T17:28:58.173Z,15.30
2022-10-22T17:31:37.340Z,15.35
2022-10-22T17:34:15.336Z,15.32
2022-10-22T17:36:46.003Z,15.33
2022-10-22T17:39:31.350Z,15.31
2022-10-22T17:41:58.700Z,15.24
2022-10-22T17:44:26.238Z,15.37
2022-10-22T17:46:54.038Z,15.20
2022-10-22T17:49:21.487Z,15.12
2022-10-22T17:51:48.792Z,15.44
2022-10-22T17:54:16.065Z,15.40
2022-10-22T17:56:43.579Z,15.56
2022-10-22T17:59:14.807Z,15.50
2022-10-22T18:01:45.747Z,15.46
2022-10-22T18:04:19.082Z,15.24
2022-10-22T18:06:47.485Z,15.43
2022-10-22T18:09:18.762Z,15.36
2022-10-22T18:11:49.570Z,15.43
2022-10-22T18:14:22.626Z,15.35
2022-10-22T18:16:50.658Z,15.38
2022-10-22T18:19:22.236Z,15.49
2022-10-22T18:21:52.253Z,15.53
2022-10-22T18:24:24.239Z,15.37
2022-10-22T18:26:54.408Z,15.52
2022-10-22T18:29:21.516Z,15.46
2022-10-22T18:31:49.171Z,15.48
2022-10-22T18:34:19.070Z,15.25
2022-10-22T18:36:50.028Z,15.41
2022-10-22T18:39:19.545Z,15.28
2022-10-22T18:41:51.201Z,15.20
2022-10-22T18:44:24.931Z,15.48
2022-10-22T18:46:52.137Z,15.46
2022-10-22T18:49:20.086Z,15.57
2022-10-22T18:52:05.063Z,15.52
2022-10-22T18:54:32.237Z,15.45
2022-10-22T18:57:02.837Z,15.44
2022-10-22T18:59:30.893Z,15.49
2022-10-22T19:01:59.764Z,15.44
2022-10-22T19:04:33.811Z,15.16
2022-10-22T19:07:03.663Z,15.16
2022-10-22T19:09:31.014Z,15.41
2022-10-22T19:12:00.592Z,15.33
2022-10-22T19:14:28.869Z,15.47
2022-10-22T19:16:58.375Z,15.31
2022-10-22T19:19:25.701Z,15.54
2022-10-22T19:21:52.982Z,15.52
2022-10-22T19:24:20.921Z,15.50
2022-10-22T19:26:49.856Z,15.39
2022-10-22T19:29:20.433Z,15.52
2022-10-22T19:31:51.157Z,15.55
2022-10-22T19:34:19.918Z,15.54
2022-10-22T19:36:47.559Z,15.66
2022-10-22T19:39:20.637Z,15.61
2022-10-22T19:41:47.960Z,15.66
2022-10-22T19:44:15.408Z,15.69
2022-10-22T19:46:42.495Z,15.76
2022-10-22T19:49:14.730Z,15.48
2022-10-22T19:51:44.989Z,15.47
2022-10-22T19:54:24.041Z,15.44
2022-10-22T19:56:51.234Z,15.57
2022-10-22T19:59:22.894Z,15.47
2022-10-22T20:01:57.222Z,15.44
2022-10-22T20:04:26.811Z,15.64
2022-10-22T20:06:55.915Z,15.65
2022-10-22T20:09:23.874Z,15.72
2022-10-22T20:11:51.400Z,15.49
2022-10-22T20:14:18.506Z,15.54
2022-10-22T20:16:46.391Z,15.44
2022-10-22T20:19:16.361Z,15.57
2022-10-22T20:21:46.316Z,15.54
2022-10-22T20:24:13.864Z,15.46
2022-10-22T20:26:45.739Z,15.39
2022-10-22T20:29:19.202Z,15.49
2022-10-22T20:31:47.475Z,15.60
2022-10-22T20:34:15.006Z,15.41
2022-10-22T20:36:42.335Z,15.32
2022-10-22T20:39:15.218Z,15.37
2022-10-22T20:41:45.160Z,15.58
2022-10-22T20:44:17.320Z,15.62
2022-10-22T20:46:44.441Z,15.61
2022-10-22T20:49:17.853Z,15.46
2022-10-22T20:51:47.659Z,15.44
2022-10-22T20:54:15.966Z,15.53
2022-10-22T20:56:43.877Z,15.41
2022-10-22T20:59:12.692Z,15.34
2022-10-22T21:01:52.878Z,15.44
2022-10-22T21:04:23.198Z,15.41
2022-10-22T21:06:52.222Z,15.34
2022-10-22T21:09:20.063Z,15.21
2022-10-22T21:11:47.967Z,15.30
2022-10-22T21:14:20.006Z,15.31
2022-10-22T21:16:50.097Z,15.37
2022-10-22T21:19:22.621Z,15.38
2022-10-22T21:21:54.938Z,15.55
2022-10-22T21:24:28.890Z,15.27
2022-10-22T21:26:56.099Z,15.47
2022-10-22T21:29:23.429Z,15.41
2022-10-22T21:31:50.710Z,15.48
2022-10-22T21:34:17.855Z,15.32
2022-10-22T21:39:19.371Z,15.36
2022-10-22T21:41:46.562Z,15.38
2022-10-22T21:44:13.698Z,15.22
2022-10-22T21:46:41.035Z,15.20
2022-10-22T21:49:08.155Z,15.17
2022-10-22T21:51:38.149Z,15.13
2022-10-22T21:54:05.438Z,15.06
2022-10-22T21:56:35.055Z,14.95
2022-10-22T21:59:04.293Z,14.79
2022-10-22T22:01:31.868Z,14.66
2022-10-22T22:03:59.677Z,14.82
2022-10-22T22:06:33.353Z,14.82
2022-10-22T22:09:02.398Z,14.52
2022-10-22T22:11:30.819Z,14.54
2022-10-22T22:13:59.028Z,14.80
2022-10-22T22:16:29.671Z,14.73
2022-10-22T22:19:11.894Z,14.82
2022-10-22T22:21:40.778Z,14.86
2022-10-22T22:24:10.972Z,14.76
2022-10-22T22:26:39.410Z,14.63
2022-10-22T22:29:06.647Z,14.84
2022-10-22T22:31:35.356Z,14.61
2022-10-22T22:34:08.877Z,14.72
2022-10-22T22:36:39.703Z,14.62
2022-10-22T22:39:10.549Z,14.80
2022-10-22T22:41:37.737Z,14.79
2022-10-22T22:44:06.054Z,14.82
2022-10-22T22:46:33.527Z,14.87
2022-10-22T22:49:00.891Z,14.60
2022-10-22T22:51:28.000Z,14.86
2022-10-22T22:53:57.975Z,14.68
2022-10-22T22:56:28.578Z,14.60
2022-10-22T22:58:56.304Z,14.60
2022-10-22T23:01:29.194Z,14.61
2022-10-22T23:04:00.124Z,14.64
2022-10-22T23:06:32.154Z,14.66
2022-10-22T23:09:00.037Z,14.81
2022-10-22T23:11:28.461Z,14.81
2022-10-22T23:14:03.336Z,14.86
2022-10-22T23:16:34.500Z,14.68
2022-10-22T23:19:02.665Z,14.63
2022-10-22T23:21:34.115Z,14.45
2022-10-22T23:24:09.392Z,14.50
2022-10-22T23:26:42.454Z,14.55
2022-10-22T23:29:23.055Z,14.51
2022-10-22T23:31:51.444Z,14.60
2022-10-22T23:34:23.142Z,14.42
2022-10-22T23:36:51.379Z,14.53
2022-10-22T23:39:22.986Z,14.65
2022-10-22T23:41:50.868Z,14.74
2022-10-22T23:44:18.086Z,14.70
2022-10-22T23:46:45.350Z,14.86
2022-10-22T23:49:12.844Z,15.02
2022-10-22T23:51:41.180Z,14.88
2022-10-22T23:54:16.349Z,14.97
2022-10-22T23:56:43.705Z,15.16
2022-10-22T23:59:11.178Z,15.10
